Time;durP1;ratioP1;P1;durP2;ratioP2;P2;SDS_P1;SDS_P2;PMS_P1;PMS_P2;Temp;Humidity;BMP_temperature;BMP_pressure;BME280_temperature;BME280_humidity;BME280_pressure;Samples;Min_cycle;Max_cycle;Signal;HPM_P1;HPM_P2
2022/01/09 00:01:00;;;;;;;14.63;2.40;;;6.80;99.90;;;;;;4975854;28;20186;-79
2022/01/09 00:03:26;;;;;;;12.73;2.53;;;6.80;99.90;;;;;;4975829;28;20686;-78
2022/01/09 00:05:51;;;;;;;11.27;2.47;;;6.80;99.90;;;;;;4975786;28;20209;-78
2022/01/09 00:08:17;;;;;;;24.30;3.13;;;6.80;99.90;;;;;;4975844;28;20631;-78
2022/01/09 00:10:47;;;;;;;15.77;2.92;;;6.80;99.90;;;;;;4975016;28;20311;-78
2022/01/09 00:13:13;;;;;;;18.58;3.00;;;6.80;99.90;;;;;;4975638;28;20166;-78
2022/01/09 00:15:38;;;;;;;16.40;3.10;;;6.80;99.90;;;;;;4975618;28;20177;-78
2022/01/09 00:18:04;;;;;;;14.80;3.00;;;6.80;99.90;;;;;;4975616;28;20174;-78
2022/01/09 00:20:30;;;;;;;23.85;3.70;;;6.80;99.90;;;;;;4975412;28;20194;-77
2022/01/09 00:22:55;;;;;;;16.00;2.38;;;6.80;99.90;;;;;;4975603;28;20196;-78
2022/01/09 00:25:23;;;;;;;12.60;2.75;;;6.80;99.90;;;;;;4975405;28;20166;-78
2022/01/09 00:27:50;;;;;;;22.70;2.47;;;6.90;99.90;;;;;;4975820;28;20264;-77
2022/01/09 00:30:18;;;;;;;16.35;2.95;;;7.00;99.90;;;;;;4975833;28;20190;-78
2022/01/09 00:32:44;;;;;;;23.77;4.25;;;7.00;99.90;;;;;;4975529;28;20174;-78
2022/01/09 00:35:11;;;;;;;21.92;3.30;;;7.10;99.90;;;;;;4975314;28;20177;-77
2022/01/09 00:37:37;;;;;;;22.65;3.03;;;7.00;99.90;;;;;;4975399;28;20257;-78
2022/01/09 00:40:06;;;;;;;21.83;2.88;;;7.00;99.90;;;;;;4975148;28;20240;-78
2022/01/09 00:42:32;;;;;;;24.30;3.20;;;7.10;99.90;;;;;;4990617;28;20174;-78
2022/01/09 00:44:57;;;;;;;23.83;3.60;;;7.20;99.90;;;;;;4990700;28;20240;-79
2022/01/09 00:47:23;;;;;;;24.63;4.30;;;7.20;99.90;;;;;;4990366;28;20216;-79
2022/01/09 00:49:48;;;;;;;31.73;4.38;;;7.30;99.90;;;;;;4975126;28;20547;-78
2022/01/09 00:52:14;;;;;;;35.25;4.72;;;7.30;99.90;;;;;;4975333;28;20237;-79
2022/01/09 00:54:40;;;;;;;14.95;3.08;;;7.20;99.90;;;;;;4974241;28;20217;-78
2022/01/09 00:57:05;;;;;;;22.60;3.17;;;7.30;99.90;;;;;;4975130;28;20174;-78
2022/01/09 00:59:31;;;;;;;26.67;3.72;;;7.30;99.90;;;;;;4975296;28;20186;-79
2022/01/09 01:01:57;;;;;;;15.45;3.90;;;7.30;99.90;;;;;;4975351;28;20547;-76
2022/01/09 01:04:22;;;;;;;14.27;3.38;;;7.30;99.90;;;;;;4975218;28;20252;-77
2022/01/09 01:06:49;;;;;;;25.38;3.20;;;7.30;99.90;;;;;;4989966;28;20213;-78
2022/01/09 01:09:16;;;;;;;16.85;3.55;;;7.30;99.90;;;;;;4975067;28;20646;-77
2022/01/09 01:11:41;;;;;;;16.80;3.95;;;7.30;99.90;;;;;;4975077;28;20170;-77
2022/01/09 01:14:07;;;;;;;11.38;2.92;;;7.40;99.90;;;;;;4975061;28;20676;-78
2022/01/09 01:16:33;;;;;;;20.05;3.63;;;7.40;99.90;;;;;;4974751;28;20704;-78
2022/01/09 01:19:00;;;;;;;17.33;3.65;;;7.40;99.90;;;;;;4974634;28;20189;-78
2022/01/09 01:21:26;;;;;;;19.55;3.03;;;7.30;99.90;;;;;;4974872;28;20527;-77
2022/01/09 01:23:52;;;;;;;12.85;3.42;;;7.30;99.90;;;;;;4974569;28;20249;-77
2022/01/09 01:26:18;;;;;;;12.20;2.83;;;7.20;99.90;;;;;;4974657;28;20216;-78
2022/01/09 01:28:43;;;;;;;18.90;2.67;;;7.10;99.90;;;;;;4974591;28;20174;-78
2022/01/09 01:31:12;;;;;;;15.20;4.07;;;7.10;99.90;;;;;;4974761;28;20186;-77
2022/01/09 01:33:38;;;;;;;18.58;2.53;;;7.10;99.90;;;;;;4974639;28;20546;-78
2022/01/09 01:36:04;;;;;;;23.80;3.20;;;7.10;99.90;;;;;;4974644;28;20245;-78
2022/01/09 01:38:30;;;;;;;19.10;2.58;;;7.10;99.90;;;;;;4974423;28;20189;-77
2022/01/09 01:40:57;;;;;;;10.43;2.42;;;7.10;99.90;;;;;;4974187;28;20214;-77
2022/01/09 01:43:22;;;;;;;13.93;2.88;;;7.10;99.90;;;;;;4974158;28;20181;-77
2022/01/09 01:45:48;;;;;;;15.23;2.50;;;7.10;99.90;;;;;;4974269;28;20202;-77
2022/01/09 01:48:14;;;;;;;14.40;2.60;;;7.10;99.90;;;;;;4974163;28;20177;-77
2022/01/09 01:50:41;;;;;;;22.42;4.55;;;7.10;99.90;;;;;;4988681;28;20314;-79
2022/01/09 01:53:15;;;;;;;13.27;2.40;;;7.10;99.90;;;;;;4973959;28;20173;-79
2022/01/09 01:55:41;;;;;;;13.15;2.40;;;7.20;99.90;;;;;;4973902;28;20584;-77
2022/01/09 01:58:10;;;;;;;17.80;2.33;;;7.20;99.90;;;;;;4974188;28;20205;-77
2022/01/09 02:00:41;;;;;;;25.52;3.33;;;7.20;99.90;;;;;;4973643;28;20277;-77
2022/01/09 02:03:07;;;;;;;11.50;2.72;;;7.20;99.90;;;;;;4973951;28;20505;-77
2022/01/09 02:05:33;;;;;;;12.07;2.88;;;7.30;99.90;;;;;;4973896;28;20505;-78
2022/01/09 02:08:00;;;;;;;19.80;2.92;;;7.30;99.90;;;;;;4974445;28;20174;-77
2022/01/09 02:10:26;;;;;;;17.33;3.58;;;7.30;99.90;;;;;;4973808;28;20217;-77
2022/01/09 02:12:55;;;;;;;17.52;2.55;;;7.30;99.90;;;;;;4974436;28;20197;-78
2022/01/09 02:15:30;;;;;;;20.17;2.75;;;7.30;99.90;;;;;;4974125;28;20172;-78
2022/01/09 02:17:55;;;;;;;14.38;2.97;;;7.30;99.90;;;;;;4974389;28;20231;-78
2022/01/09 02:20:22;;;;;;;7.82;2.60;;;7.20;99.90;;;;;;4973963;28;20218;-78
2022/01/09 02:22:47;;;;;;;15.25;2.55;;;7.20;99.90;;;;;;4974508;28;20217;-78
2022/01/09 02:25:14;;;;;;;10.55;2.83;;;7.10;99.90;;;;;;4974082;28;20173;-78
2022/01/09 02:27:40;;;;;;;13.18;2.25;;;7.10;99.90;;;;;;4974042;28;20718;-78
2022/01/09 02:30:06;;;;;;;21.58;2.85;;;7.10;99.90;;;;;;4988811;28;20189;-77
2022/01/09 02:32:32;;;;;;;9.57;1.48;;;7.10;99.90;;;;;;4973326;28;20174;-76
2022/01/09 02:34:57;;;;;;;10.07;2.03;;;7.10;99.90;;;;;;4988540;28;20162;-78
2022/01/09 02:37:23;;;;;;;14.30;1.88;;;7.20;99.90;;;;;;4973755;28;20177;-77
2022/01/09 02:39:49;;;;;;;7.82;2.67;;;7.10;99.90;;;;;;4988576;28;20197;-76
2022/01/09 02:42:25;;;;;;;16.85;2.63;;;7.20;99.90;;;;;;4973331;28;20174;-77
2022/01/09 02:44:51;;;;;;;17.95;2.72;;;7.10;99.90;;;;;;4973698;28;20252;-77
2022/01/09 02:47:18;;;;;;;8.57;2.90;;;7.10;99.90;;;;;;4973637;28;20214;-77
2022/01/09 02:49:48;;;;;;;20.75;3.00;;;7.00;99.90;;;;;;4973901;28;20733;-78
2022/01/09 02:52:28;;;;;;;10.45;2.20;;;7.00;99.90;;;;;;4973618;28;20198;-78
2022/01/09 02:55:10;;;;;;;26.75;3.78;;;7.00;99.90;;;;;;4973036;28;20216;-78
2022/01/09 02:57:37;;;;;;;12.93;2.10;;;7.00;99.90;;;;;;4973414;28;20161;-78
2022/01/09 03:00:05;;;;;;;17.10;2.45;;;7.00;99.90;;;;;;4973226;28;20192;-78
2022/01/09 03:02:31;;;;;;;6.38;2.08;;;7.00;99.90;;;;;;4973791;28;20162;-77
2022/01/09 03:04:57;;;;;;;8.93;2.03;;;7.00;99.90;;;;;;4988237;28;20180;-78
2022/01/09 03:07:22;;;;;;;10.90;2.17;;;7.00;99.90;;;;;;4973527;28;20237;-77
2022/01/09 03:09:48;;;;;;;8.80;1.95;;;6.90;99.90;;;;;;4973646;28;20197;-77
2022/01/09 03:12:13;;;;;;;14.75;1.90;;;6.90;99.90;;;;;;4973049;28;20177;-77
2022/01/09 03:14:39;;;;;;;13.73;2.13;;;6.80;99.90;;;;;;4972086;28;20190;-78
2022/01/09 03:17:04;;;;;;;14.95;2.35;;;6.80;99.90;;;;;;4973314;28;20260;-77
2022/01/09 03:19:30;;;;;;;9.82;2.28;;;6.80;99.90;;;;;;4976254;28;20190;-78
2022/01/09 03:21:55;;;;;;;9.35;2.60;;;6.80;99.90;;;;;;4977075;28;20566;-76
2022/01/09 03:24:21;;;;;;;15.32;2.22;;;6.80;99.90;;;;;;4992121;28;20166;-78
2022/01/09 03:26:47;;;;;;;26.05;2.70;;;6.90;99.90;;;;;;4976435;28;20209;-79
2022/01/09 03:29:12;;;;;;;11.52;2.08;;;6.80;99.90;;;;;;4976687;28;20193;-78
2022/01/09 03:31:38;;;;;;;11.20;1.60;;;6.80;99.90;;;;;;4976493;28;20162;-78
2022/01/09 03:34:03;;;;;;;10.82;1.77;;;6.80;99.90;;;;;;4976655;28;20523;-77
2022/01/09 03:36:29;;;;;;;17.85;2.10;;;6.70;99.90;;;;;;4977293;28;20264;-78
2022/01/09 03:38:54;;;;;;;15.05;1.90;;;6.70;99.90;;;;;;4976199;28;20623;-77
2022/01/09 03:41:20;;;;;;;11.95;2.55;;;6.70;99.90;;;;;;4976731;28;20185;-77
2022/01/09 03:43:46;;;;;;;11.27;2.58;;;6.70;99.90;;;;;;4976928;28;20253;-78
2022/01/09 03:46:11;;;;;;;12.50;1.70;;;6.70;99.90;;;;;;4978500;28;20300;-78
2022/01/09 03:48:37;;;;;;;9.57;2.08;;;6.70;99.90;;;;;;4978381;28;20197;-77
2022/01/09 03:51:03;;;;;;;12.05;2.22;;;6.70;99.90;;;;;;4978291;28;20554;-77
2022/01/09 03:53:30;;;;;;;11.48;2.13;;;6.70;99.90;;;;;;4978749;28;20163;-77
2022/01/09 03:55:57;;;;;;;15.82;2.25;;;6.80;99.90;;;;;;4978345;28;20181;-77
2022/01/09 03:58:22;;;;;;;13.10;2.50;;;6.80;99.90;;;;;;4979414;28;20526;-78
2022/01/09 04:00:48;;;;;;;8.05;1.30;;;6.90;99.90;;;;;;4978567;28;20197;-78
2022/01/09 04:03:13;;;;;;;12.10;1.80;;;6.90;99.90;;;;;;4980288;28;20174;-77
2022/01/09 04:05:39;;;;;;;9.52;1.67;;;6.90;99.90;;;;;;4977937;28;20253;-77
2022/01/09 04:08:05;;;;;;;10.00;2.30;;;6.80;99.90;;;;;;4994228;28;20609;-77
2022/01/09 04:10:32;;;;;;;11.27;2.30;;;6.80;99.90;;;;;;4976517;28;20733;-77
2022/01/09 04:13:00;;;;;;;8.35;2.03;;;6.90;99.90;;;;;;4978999;28;20635;-77
2022/01/09 04:15:27;;;;;;;10.52;2.22;;;6.90;99.90;;;;;;4993259;28;20172;-77
2022/01/09 04:17:55;;;;;;;16.35;2.50;;;6.80;99.90;;;;;;4979822;28;20181;-77
2022/01/09 04:20:31;;;;;;;13.93;2.53;;;6.80;99.90;;;;;;4993576;28;20277;-78
2022/01/09 04:22:58;;;;;;;10.90;1.83;;;6.80;99.90;;;;;;4977565;28;20157;-78
2022/01/09 04:25:24;;;;;;;6.30;1.85;;;6.70;99.90;;;;;;4975366;28;20170;-78
2022/01/09 04:27:51;;;;;;;10.77;1.70;;;6.80;99.90;;;;;;4990275;28;20196;-76
2022/01/09 04:30:17;;;;;;;14.38;1.40;;;6.80;99.90;;;;;;4975184;28;20182;-76
2022/01/09 04:32:43;;;;;;;14.35;1.90;;;6.80;99.90;;;;;;4973905;28;20180;-76
2022/01/09 04:35:10;;;;;;;15.80;2.00;;;6.70;99.90;;;;;;4975581;28;20168;-76
2022/01/09 04:37:36;;;;;;;6.72;1.83;;;6.70;99.90;;;;;;4975730;28;20639;-76
2022/01/09 04:40:05;;;;;;;8.38;1.33;;;6.70;99.90;;;;;;4975248;28;20595;-76
2022/01/09 04:42:41;;;;;;;7.45;1.40;;;6.60;99.90;;;;;;4975232;28;20931;-76
2022/01/09 04:45:08;;;;;;;8.98;1.52;;;6.40;99.90;;;;;;4975057;28;20220;-76
2022/01/09 04:47:34;;;;;;;8.85;2.00;;;6.50;99.90;;;;;;4989983;28;20226;-76
2022/01/09 04:50:00;;;;;;;14.88;1.70;;;6.40;99.90;;;;;;4975113;28;20193;-76
2022/01/09 04:52:32;;;;;;;4.55;1.85;;;6.40;99.90;;;;;;4974862;28;20172;-76
2022/01/09 04:54:58;;;;;;;18.05;2.83;;;6.40;99.90;;;;;;4974735;28;20162;-76
2022/01/09 04:57:23;;;;;;;4.00;1.60;;;6.50;99.90;;;;;;4974620;28;20174;-76
2022/01/09 04:59:49;;;;;;;4.93;2.60;;;6.60;99.90;;;;;;4973588;28;20201;-77
2022/01/09 05:02:15;;;;;;;6.32;1.30;;;6.60;99.90;;;;;;4974865;28;20619;-76
2022/01/09 05:04:40;;;;;;;20.48;2.35;;;6.60;99.90;;;;;;4974562;28;20165;-76
2022/01/09 05:07:06;;;;;;;6.95;2.08;;;6.50;99.90;;;;;;4974958;28;20220;-79
2022/01/09 05:09:31;;;;;;;3.40;1.17;;;6.60;99.90;;;;;;4974796;28;20264;-78
2022/01/09 05:11:57;;;;;;;4.07;1.40;;;6.60;99.90;;;;;;4974787;28;20527;-79
2022/01/09 05:14:23;;;;;;;10.63;1.42;;;6.70;99.90;;;;;;4974769;28;20253;-79
2022/01/09 05:16:49;;;;;;;13.15;1.80;;;6.80;99.90;;;;;;4974745;28;20712;-79
2022/01/09 05:19:20;;;;;;;5.18;2.17;;;6.70;99.90;;;;;;4974537;28;20523;-79
2022/01/09 05:21:48;;;;;;;8.23;1.45;;;6.70;99.90;;;;;;4974670;28;20260;-78
2022/01/09 05:24:15;;;;;;;10.50;2.17;;;6.80;99.90;;;;;;4974479;28;20177;-79
2022/01/09 05:26:40;;;;;;;11.23;1.80;;;6.80;99.90;;;;;;4974503;28;20282;-76
2022/01/09 05:29:06;;;;;;;12.38;2.85;;;6.80;99.90;;;;;;4974342;28;20162;-76
2022/01/09 05:31:31;;;;;;;11.05;2.35;;;6.80;99.90;;;;;;4974567;28;20177;-76
2022/01/09 05:33:57;;;;;;;11.60;2.83;;;6.80;99.90;;;;;;4974280;28;20162;-76
2022/01/09 05:36:23;;;;;;;9.60;1.50;;;6.70;99.90;;;;;;4974189;28;20527;-75
2022/01/09 05:38:48;;;;;;;7.30;1.48;;;6.40;99.90;;;;;;4988947;28;20170;-76
2022/01/09 05:41:14;;;;;;;6.82;1.77;;;6.30;99.90;;;;;;4973608;28;20193;-76
2022/01/09 05:43:40;;;;;;;10.55;1.70;;;6.20;99.90;;;;;;4974503;28;20170;-76
2022/01/09 05:46:06;;;;;;;13.20;1.83;;;6.30;99.90;;;;;;4974032;28;20565;-77
2022/01/09 05:48:32;;;;;;;15.95;1.92;;;6.30;99.90;;;;;;4988683;28;20651;-77
2022/01/09 05:50:57;;;;;;;4.13;1.58;;;6.30;99.90;;;;;;4973892;28;20244;-77
2022/01/09 05:53:23;;;;;;;14.13;2.40;;;6.30;99.90;;;;;;4973612;28;20185;-77
2022/01/09 05:55:48;;;;;;;16.95;2.08;;;6.30;99.90;;;;;;4988701;28;20180;-77
2022/01/09 05:58:15;;;;;;;7.65;1.52;;;6.30;99.90;;;;;;4989032;28;20161;-77
2022/01/09 06:00:41;;;;;;;4.97;1.42;;;6.40;99.90;;;;;;4973994;28;20209;-77
2022/01/09 06:03:06;;;;;;;5.07;1.70;;;6.40;99.90;;;;;;4974125;28;20167;-77
2022/01/09 06:05:32;;;;;;;7.20;1.95;;;6.50;99.90;;;;;;4973771;28;20233;-77
2022/01/09 06:07:58;;;;;;;9.20;1.75;;;6.40;99.90;;;;;;4973455;28;20177;-77
2022/01/09 06:10:23;;;;;;;8.93;1.90;;;6.30;99.90;;;;;;4973296;28;20232;-77
2022/01/09 06:12:49;;;;;;;6.72;1.52;;;6.30;99.90;;;;;;4973429;28;20653;-77
2022/01/09 06:15:14;;;;;;;6.13;1.33;;;6.30;99.90;;;;;;4973698;28;20174;-77
2022/01/09 06:17:43;;;;;;;10.35;1.83;;;6.20;99.90;;;;;;4974045;28;20177;-77
2022/01/09 06:20:11;;;;;;;8.10;1.75;;;6.30;99.90;;;;;;4973608;28;20194;-77
2022/01/09 06:22:37;;;;;;;6.85;1.42;;;6.20;99.90;;;;;;4973816;28;20548;-77
2022/01/09 06:25:04;;;;;;;14.95;1.95;;;6.20;99.90;;;;;;4973517;28;20170;-77
2022/01/09 06:27:30;;;;;;;7.25;1.48;;;6.20;99.90;;;;;;4973214;28;20212;-77
2022/01/09 06:29:56;;;;;;;8.75;2.00;;;6.10;99.90;;;;;;4973217;28;20579;-77
2022/01/09 06:32:24;;;;;;;5.30;1.17;;;6.00;99.90;;;;;;4973468;28;20631;-80
2022/01/09 06:34:51;;;;;;;10.82;1.88;;;6.00;99.90;;;;;;4973574;28;20174;-77
2022/01/09 06:37:16;;;;;;;10.32;1.50;;;6.10;99.90;;;;;;4973519;28;20228;-77
2022/01/09 06:39:43;;;;;;;10.88;1.77;;;6.30;99.90;;;;;;4973412;28;20194;-77
2022/01/09 06:42:09;;;;;;;4.72;2.05;;;6.40;99.90;;;;;;4973473;28;20635;-78
2022/01/09 06:44:35;;;;;;;12.57;2.28;;;6.30;99.90;;;;;;4973440;28;20174;-77
2022/01/09 06:47:01;;;;;;;11.93;1.50;;;6.30;99.90;;;;;;4972948;28;20209;-77
2022/01/09 06:49:26;;;;;;;3.42;1.20;;;6.20;99.90;;;;;;4972952;28;20256;-77
2022/01/09 06:51:52;;;;;;;8.75;1.65;;;6.20;99.90;;;;;;4973387;28;20181;-78
2022/01/09 06:54:18;;;;;;;11.77;1.50;;;6.20;99.90;;;;;;4976521;28;20232;-77
2022/01/09 06:56:43;;;;;;;7.63;2.05;;;6.10;99.90;;;;;;4977235;28;20182;-78
2022/01/09 06:59:09;;;;;;;7.88;1.77;;;6.20;99.90;;;;;;4976914;28;20162;-78
2022/01/09 07:01:35;;;;;;;8.77;1.60;;;6.10;99.90;;;;;;4977592;28;20639;-78
2022/01/09 07:04:01;;;;;;;9.05;2.05;;;6.20;99.90;;;;;;4977517;28;20193;-78
2022/01/09 07:06:26;;;;;;;6.28;1.75;;;6.10;99.90;;;;;;4977045;28;20336;-77
2022/01/09 07:08:52;;;;;;;9.23;1.42;;;6.10;99.90;;;;;;4977225;28;20170;-78
2022/01/09 07:11:18;;;;;;;7.15;1.45;;;6.00;99.90;;;;;;4977221;28;20197;-78
2022/01/09 07:13:43;;;;;;;4.68;1.80;;;6.00;99.90;;;;;;4977162;28;20578;-77
2022/01/09 07:16:09;;;;;;;12.50;1.98;;;6.00;99.90;;;;;;4977065;28;20201;-78
2022/01/09 07:18:35;;;;;;;6.43;1.77;;;6.00;99.90;;;;;;4976945;28;20170;-78
2022/01/09 07:21:02;;;;;;;3.17;1.40;;;6.00;99.90;;;;;;4976960;28;20202;-77
2022/01/09 07:23:28;;;;;;;14.50;1.73;;;6.00;99.90;;;;;;4976864;28;20174;-77
2022/01/09 07:25:53;;;;;;;16.33;1.80;;;6.00;99.90;;;;;;4976624;28;20276;-78
2022/01/09 07:28:19;;;;;;;7.18;2.00;;;6.10;99.90;;;;;;4976618;28;20197;-77
2022/01/09 07:30:45;;;;;;;6.05;1.58;;;6.10;99.90;;;;;;4991586;28;20244;-78
2022/01/09 07:33:10;;;;;;;19.25;2.33;;;6.10;99.90;;;;;;4976628;28;20170;-77
2022/01/09 07:35:36;;;;;;;8.60;1.77;;;6.20;99.90;;;;;;4976612;28;20165;-77
2022/01/09 07:38:02;;;;;;;7.97;2.08;;;6.30;99.90;;;;;;4976424;28;20178;-76
2022/01/09 07:40:28;;;;;;;9.25;3.20;;;6.20;99.90;;;;;;4976234;28;20590;-77
2022/01/09 07:42:54;;;;;;;12.02;1.45;;;6.20;99.90;;;;;;4976610;28;20588;-77
2022/01/09 07:45:24;;;;;;;10.00;1.88;;;6.20;99.90;;;;;;4976614;28;20162;-77
2022/01/09 07:47:50;;;;;;;10.50;3.33;;;6.20;99.90;;;;;;4976347;28;20305;-77
2022/01/09 07:50:17;;;;;;;13.00;5.43;;;6.30;99.90;;;;;;4976199;28;20240;-78
2022/01/09 07:52:42;;;;;;;7.18;2.95;;;6.20;99.90;;;;;;4976003;28;20177;-79
2022/01/09 07:55:09;;;;;;;12.02;2.40;;;6.10;99.90;;;;;;4975907;28;20174;-77
2022/01/09 07:57:36;;;;;;;7.72;2.53;;;6.10;99.90;;;;;;4976096;28;20166;-76
2022/01/09 08:00:04;;;;;;;13.93;2.75;;;6.30;99.90;;;;;;4975979;28;20205;-77
2022/01/09 08:02:30;;;;;;;9.60;1.98;;;6.40;99.90;;;;;;4976054;28;20166;-77
2022/01/09 08:04:55;;;;;;;5.70;1.55;;;6.50;99.90;;;;;;4975470;28;20649;-78
2022/01/09 08:07:21;;;;;;;8.60;3.30;;;6.40;99.90;;;;;;4990430;28;20215;-77
2022/01/09 08:09:47;;;;;;;14.95;2.00;;;6.40;99.90;;;;;;4975737;28;20264;-78
2022/01/09 08:12:14;;;;;;;10.07;2.03;;;6.50;99.90;;;;;;4976012;28;20181;-78
2022/01/09 08:14:41;;;;;;;17.33;2.00;;;6.50;99.90;;;;;;4976190;28;20173;-78
2022/01/09 08:17:07;;;;;;;10.73;2.75;;;6.50;99.90;;;;;;4975596;28;20201;-77
2022/01/09 08:19:33;;;;;;;8.02;2.05;;;6.60;99.90;;;;;;4975516;28;20228;-78
2022/01/09 08:21:58;;;;;;;4.82;1.27;;;6.50;99.90;;;;;;4990580;28;20170;-77
2022/01/09 08:24:24;;;;;;;3.55;1.23;;;6.40;99.90;;;;;;4975752;28;20173;-78
2022/01/09 08:26:50;;;;;;;7.70;1.98;;;6.30;99.90;;;;;;4975192;28;20252;-78
2022/01/09 08:29:16;;;;;;;7.90;2.10;;;6.20;99.90;;;;;;4975482;28;20182;-79
2022/01/09 08:31:42;;;;;;;4.53;1.65;;;6.20;99.90;;;;;;4975466;28;20645;-78
2022/01/09 08:34:07;;;;;;;18.25;2.05;;;6.20;99.90;;;;;;4975216;28;20166;-77
2022/01/09 08:36:33;;;;;;;5.43;1.73;;;6.30;99.90;;;;;;4975548;28;20162;-77
2022/01/09 08:38:59;;;;;;;9.65;1.85;;;6.30;99.90;;;;;;4975327;28;20174;-78
2022/01/09 08:41:25;;;;;;;8.45;1.80;;;6.30;99.90;;;;;;4989974;28;20178;-78
2022/01/09 08:43:50;;;;;;;13.57;2.20;;;6.30;99.90;;;;;;4975171;28;20174;-77
2022/01/09 08:46:16;;;;;;;19.35;1.98;;;6.30;99.90;;;;;;4975033;28;20202;-77
2022/01/09 08:48:42;;;;;;;6.60;2.15;;;6.40;99.90;;;;;;4975178;28;20181;-77
2022/01/09 08:51:07;;;;;;;14.52;2.00;;;6.50;99.90;;;;;;4974892;28;20545;-78
2022/01/09 08:53:35;;;;;;;5.25;1.65;;;6.60;99.90;;;;;;4974584;28;20170;-77
2022/01/09 08:56:03;;;;;;;12.30;2.08;;;6.60;99.90;;;;;;4974982;28;20176;-77
2022/01/09 08:58:30;;;;;;;9.80;2.40;;;6.70;99.90;;;;;;4975112;28;20660;-79
2022/01/09 09:00:55;;;;;;;11.75;1.73;;;6.70;99.90;;;;;;4989853;28;20713;-77
2022/01/09 09:03:22;;;;;;;7.85;2.15;;;6.80;99.90;;;;;;4975076;28;20181;-78
2022/01/09 09:05:48;;;;;;;7.82;1.88;;;6.70;99.90;;;;;;4974693;28;20169;-79
2022/01/09 09:08:13;;;;;;;10.20;2.05;;;6.70;99.90;;;;;;4974809;28;20177;-79
2022/01/09 09:10:39;;;;;;;11.73;2.33;;;6.80;99.90;;;;;;4989445;28;20194;-78
2022/01/09 09:13:05;;;;;;;14.48;1.98;;;6.80;99.90;;;;;;4974518;28;20682;-79
2022/01/09 09:15:30;;;;;;;15.60;3.10;;;6.80;99.90;;;;;;4973518;28;20185;-77
2022/01/09 09:17:56;;;;;;;19.27;2.55;;;6.60;99.90;;;;;;4974331;28;20174;-77
2022/01/09 09:20:23;;;;;;;15.45;2.40;;;6.70;99.90;;;;;;4974289;28;20221;-75
2022/01/09 09:22:49;;;;;;;5.13;1.35;;;6.80;99.90;;;;;;4974283;28;20245;-78
2022/01/09 09:25:15;;;;;;;12.45;2.25;;;6.60;99.90;;;;;;4974419;28;20247;-76
2022/01/09 09:27:40;;;;;;;5.60;1.65;;;6.60;99.90;;;;;;4973791;28;20219;-78
2022/01/09 09:30:07;;;;;;;15.55;1.90;;;6.60;99.90;;;;;;4973954;28;20185;-77
2022/01/09 09:32:33;;;;;;;10.32;2.03;;;6.60;99.90;;;;;;4974543;28;20566;-77
2022/01/09 09:34:59;;;;;;;13.18;2.08;;;6.70;99.90;;;;;;4974421;28;20239;-77
2022/01/09 09:37:28;;;;;;;12.00;2.10;;;6.80;99.90;;;;;;4974595;28;20166;-77
2022/01/09 09:39:54;;;;;;;12.27;2.30;;;6.90;99.90;;;;;;4974168;28;20194;-77
2022/01/09 09:42:21;;;;;;;6.63;1.75;;;7.10;99.90;;;;;;4973725;28;20162;-77
2022/01/09 09:44:46;;;;;;;17.38;3.10;;;7.20;99.90;;;;;;4973854;28;20528;-77
2022/01/09 09:47:13;;;;;;;7.57;2.22;;;7.00;99.90;;;;;;4988835;28;20219;-77
2022/01/09 09:49:39;;;;;;;9.63;1.75;;;6.90;99.90;;;;;;4973842;28;20181;-77
2022/01/09 09:52:06;;;;;;;6.65;1.73;;;6.80;99.90;;;;;;4988553;28;20655;-78
2022/01/09 09:54:32;;;;;;;16.48;2.05;;;7.00;99.90;;;;;;4973793;28;20174;-77
2022/01/09 09:56:57;;;;;;;9.48;1.75;;;7.10;99.90;;;;;;4973676;28;20194;-77
2022/01/09 09:59:34;;;;;;;14.25;2.38;;;7.00;99.90;;;;;;4973266;28;20276;-78
2022/01/09 10:02:00;;;;;;;14.07;2.20;;;7.10;99.90;;;;;;4973698;28;20173;-79
2022/01/09 10:04:25;;;;;;;5.45;1.67;;;7.00;99.90;;;;;;4972117;28;20285;-78
2022/01/09 10:06:51;;;;;;;5.13;1.98;;;7.10;99.90;;;;;;4973442;28;20263;-78
2022/01/09 10:09:19;;;;;;;9.25;1.73;;;7.20;99.90;;;;;;4973662;28;20225;-78
2022/01/09 10:11:54;;;;;;;13.70;2.55;;;7.20;99.90;;;;;;4973434;28;20193;-78
2022/01/09 10:14:23;;;;;;;9.05;2.95;;;7.10;99.90;;;;;;4973327;28;20177;-78
2022/01/09 10:17:09;;;;;;;16.70;2.83;;;7.20;99.90;;;;;;4973320;28;20170;-78
2022/01/09 10:19:57;;;;;;;13.98;2.53;;;7.30;99.90;;;;;;4973522;28;20193;-77
2022/01/09 10:22:33;;;;;;;14.93;2.35;;;7.20;99.90;;;;;;4973519;28;20173;-76
2022/01/09 10:25:19;;;;;;;12.25;2.80;;;7.20;99.90;;;;;;4972079;28;20177;-77
2022/01/09 10:27:45;;;;;;;11.85;2.78;;;7.30;99.90;;;;;;4973128;28;20666;-79
2022/01/09 10:30:12;;;;;;;6.63;1.83;;;7.40;99.90;;;;;;4973306;28;20221;-76
2022/01/09 10:32:39;;;;;;;10.93;2.55;;;7.30;99.90;;;;;;4973605;28;20181;-77
2022/01/09 10:35:12;;;;;;;4.68;1.38;;;7.40;99.90;;;;;;4973553;28;20166;-77
2022/01/09 10:37:39;;;;;;;7.00;2.13;;;7.40;99.90;;;;;;4973157;28;20181;-78
2022/01/09 10:40:08;;;;;;;7.68;2.15;;;7.50;99.90;;;;;;4972490;28;20189;-77
2022/01/09 10:42:34;;;;;;;7.78;2.40;;;7.30;99.90;;;;;;4973322;28;20232;-78
2022/01/09 10:45:23;;;;;;;8.15;2.10;;;7.30;99.90;;;;;;4972963;28;20545;-77
2022/01/09 10:47:55;;;;;;;17.00;3.10;;;7.40;99.90;;;;;;4973085;28;20649;-79
2022/01/09 10:50:27;;;;;;;14.10;3.25;;;7.20;99.90;;;;;;4973263;28;20217;-77
2022/01/09 10:52:52;;;;;;;9.23;2.00;;;7.30;99.90;;;;;;4973395;28;20170;-77
2022/01/09 10:55:18;;;;;;;10.75;2.20;;;7.30;99.90;;;;;;4972798;28;20216;-77
2022/01/09 10:57:45;;;;;;;11.23;2.72;;;7.50;99.90;;;;;;4973003;28;20166;-77
2022/01/09 11:00:15;;;;;;;8.90;1.98;;;7.50;99.90;;;;;;4972888;28;20677;-77
2022/01/09 11:02:41;;;;;;;11.10;2.72;;;7.40;99.90;;;;;;4973065;28;20180;-77
2022/01/09 11:05:08;;;;;;;7.20;2.25;;;7.30;99.90;;;;;;4986832;28;20166;-81
2022/01/09 11:07:34;;;;;;;8.43;2.42;;;7.30;99.90;;;;;;4967518;28;20206;-82
2022/01/09 11:10:01;;;;;;;8.63;1.90;;;7.40;99.90;;;;;;4968594;28;20249;-77
2022/01/09 11:12:33;;;;;;;10.73;2.03;;;7.50;99.90;;;;;;4971450;28;20166;-78
2022/01/09 11:15:03;;;;;;;7.57;2.80;;;7.50;99.90;;;;;;4965809;28;20257;-76
2022/01/09 11:17:30;;;;;;;8.75;1.95;;;7.60;99.90;;;;;;4966455;28;20181;-78
2022/01/09 11:19:55;;;;;;;20.55;2.35;;;7.60;99.90;;;;;;4968996;28;20697;-76
2022/01/09 11:22:22;;;;;;;14.40;2.05;;;7.60;99.90;;;;;;4962309;28;20170;-77
2022/01/09 11:24:53;;;;;;;8.52;2.45;;;7.60;99.90;;;;;;4961333;28;20205;-77
2022/01/09 11:27:37;;;;;;;9.35;1.92;;;7.60;99.90;;;;;;4963867;28;20787;-76
2022/01/09 11:30:29;;;;;;;8.43;2.20;;;7.70;99.90;;;;;;4965106;28;20271;-77
2022/01/09 11:33:13;;;;;;;7.18;2.25;;;7.60;99.90;;;;;;4959458;28;20181;-77
2022/01/09 11:35:51;;;;;;;8.43;2.10;;;7.60;99.90;;;;;;4962426;28;20185;-77
2022/01/09 11:38:47;;;;;;;6.80;2.22;;;7.60;99.90;;;;;;4964964;28;20200;-78
2022/01/09 11:41:40;;;;;;;6.68;2.35;;;7.80;99.90;;;;;;4969511;28;20196;-76
2022/01/09 11:44:15;;;;;;;10.32;2.63;;;7.90;99.90;;;;;;4960844;28;20177;-77
2022/01/09 11:47:00;;;;;;;7.70;2.22;;;7.90;99.90;;;;;;4968929;28;20253;-76
2022/01/09 11:49:27;;;;;;;13.98;2.47;;;7.90;99.90;;;;;;4972737;28;20197;-78
2022/01/09 11:51:59;;;;;;;10.57;2.35;;;7.90;99.90;;;;;;4965925;28;20182;-77
2022/01/09 11:54:25;;;;;;;8.50;2.35;;;8.10;99.90;;;;;;4966295;28;20536;-76
2022/01/09 11:57:06;;;;;;;6.72;2.03;;;8.10;99.90;;;;;;4965760;28;20253;-77
2022/01/09 11:59:37;;;;;;;7.32;1.58;;;8.10;99.90;;;;;;4969108;28;20569;-80
2022/01/09 12:02:12;;;;;;;17.35;2.65;;;8.10;99.90;;;;;;4972215;28;20182;-79
2022/01/09 12:04:40;;;;;;;14.85;2.15;;;8.10;99.90;;;;;;4964267;28;20581;-78
2022/01/09 12:07:16;;;;;;;6.25;2.00;;;8.00;99.90;;;;;;4963513;28;20691;-77
2022/01/09 12:09:47;;;;;;;11.55;2.35;;;7.90;99.90;;;;;;4971949;28;20219;-78
2022/01/09 12:12:32;;;;;;;11.88;4.07;;;8.10;99.90;;;;;;4985791;28;20174;-77
2022/01/09 12:15:05;;;;;;;4.32;2.17;;;8.20;99.90;;;;;;4965856;28;20265;-81
2022/01/09 12:17:33;;;;;;;9.98;2.00;;;8.30;99.90;;;;;;4966890;28;20220;-80
2022/01/09 12:20:13;;;;;;;7.57;2.10;;;8.40;99.90;;;;;;4979245;28;20681;-78
2022/01/09 12:22:39;;;;;;;13.55;2.80;;;8.50;99.90;;;;;;4964880;28;20233;-79
2022/01/09 12:25:05;;;;;;;11.55;2.95;;;8.70;99.90;;;;;;4969972;28;20204;-79
2022/01/09 12:27:44;;;;;;;21.13;2.42;;;8.80;99.90;;;;;;4961825;28;20218;-78
2022/01/09 12:30:32;;;;;;;9.38;2.20;;;8.80;99.90;;;;;;4965339;28;20197;-82
2022/01/09 12:33:05;;;;;;;14.07;3.45;;;8.70;99.90;;;;;;4964083;28;20170;-78
2022/01/09 12:35:31;;;;;;;25.15;10.93;;;8.80;99.90;;;;;;4962191;28;20220;-77
2022/01/09 12:38:00;;;;;;;31.45;11.25;;;8.80;99.90;;;;;;4973012;28;20178;-78
2022/01/09 12:40:30;;;;;;;23.10;5.00;;;8.90;99.90;;;;;;4970414;28;20204;-78
2022/01/09 12:42:58;;;;;;;17.05;3.85;;;8.90;99.90;;;;;;4964216;28;20240;-78
2022/01/09 12:45:35;;;;;;;7.57;2.83;;;9.00;99.90;;;;;;4963048;28;20235;-78
2022/01/09 12:48:03;;;;;;;11.63;2.60;;;9.10;99.90;;;;;;4967155;28;20900;-79
2022/01/09 12:50:30;;;;;;;6.72;1.90;;;9.30;99.90;;;;;;4965641;28;20190;-78
2022/01/09 12:53:29;;;;;;;20.90;2.80;;;9.40;99.90;;;;;;4958718;28;20218;-79